Newport, Minnesota
Current Conditions -  °F | °C
As of 12:30 AM on Wednesday 26 Nov 2014 (Local Time) from KSGS Reporting Station
Broken Clouds Broken Clouds  
Wind Chill: 26°   Ceiling: 7000
Heat Index: 26°   Visibility: 10mi
Dew Point: 17°   Wind: 0mph
Humidity: 69%   Direction: NA
Pressure: 30.04"   Gusts: NA
Location:  44.87°N, 93°W
Report Text: KSGS 260630Z AUTO 00000KT 10SM BKN070 M04/M09 A3004 RMK AO2 T10361086
Loading
Personal Weather Stations






























Interactive Weather Map New forecast layout! Learn more

10-Day Weather Forecast

Advertisements
Track Severe Weather on mobile